Time;durP1;ratioP1;P1;durP2;ratioP2;P2;SDS_P1;SDS_P2;PMS_P1;PMS_P2;Temp;Humidity;BMP_temperature;BMP_pressure;BME280_temperature;BME280_humidity;BME280_pressure;Samples;Min_cycle;Max_cycle;Signal;HPM_P1;HPM_P2
2023/05/04 14:53:33;;;;;;;37.42;20.63;;;;;;;;;;2113327;27;20113;-88
2023/05/04 14:54:33;;;;;;;36.88;21.17;;;;;;;;;;2114417;28;20028;-89
2023/05/04 14:55:40;;;;;;;40.60;21.67;;;;;;;;;;2114087;28;20539;-88
2023/05/04 14:56:40;;;;;;;35.67;21.40;;;;;;;;;;2118192;28;20020;-87
2023/05/04 14:57:41;;;;;;;34.50;21.33;;;;;;;;;;2115994;28;20020;-87
2023/05/04 14:58:41;;;;;;;34.00;20.95;;;;;;;;;;2116553;28;20027;-88
2023/05/04 14:59:42;;;;;;;30.70;19.80;;;;;;;;;;2112583;28;20027;-89
2023/05/04 15:00:44;;;;;;;33.88;19.70;;;;;;;;;;2115699;28;20020;-89
2023/05/04 15:01:44;;;;;;;31.15;18.83;;;;;;;;;;2118343;28;20024;-88
2023/05/04 15:02:45;;;;;;;32.00;19.05;;;;;;;;;;2113165;28;20030;-89
2023/05/04 15:03:45;;;;;;;36.00;18.80;;;;;;;;;;2112002;28;20115;-88
2023/05/04 15:04:45;;;;;;;31.17;19.23;;;;;;;;;;2100836;28;20081;-89
2023/05/04 15:05:46;;;;;;;32.25;20.20;;;;;;;;;;2110936;28;20028;-89
2023/05/04 15:06:47;;;;;;;36.72;20.08;;;;;;;;;;2111214;28;20436;-89
2023/05/04 15:07:47;;;;;;;35.58;19.67;;;;;;;;;;2111928;28;20052;-88
2023/05/04 15:08:48;;;;;;;34.75;20.40;;;;;;;;;;2112246;28;20012;-91
2023/05/04 15:09:50;;;;;;;36.75;19.60;;;;;;;;;;2113124;28;20087;-89
2023/05/04 15:10:55;;;;;;;32.00;18.95;;;;;;;;;;2112366;28;20325;-88
2023/05/04 15:11:56;;;;;;;33.22;20.20;;;;;;;;;;2112006;28;20011;-89
2023/05/04 15:12:58;;;;;;;35.03;20.75;;;;;;;;;;2110870;28;20095;-90
2023/05/04 15:13:58;;;;;;;35.88;21.20;;;;;;;;;;2111144;28;20371;-88
2023/05/04 15:14:59;;;;;;;34.90;19.85;;;;;;;;;;2112228;28;20024;-91
2023/05/04 15:16:00;;;;;;;31.58;19.17;;;;;;;;;;2111843;28;20035;-90
2023/05/04 15:17:01;;;;;;;31.52;19.13;;;;;;;;;;2115535;28;20098;-89
2023/05/04 15:18:01;;;;;;;34.08;21.92;;;;;;;;;;2114101;28;20028;-90
2023/05/04 15:19:02;;;;;;;32.30;19.17;;;;;;;;;;2113667;28;20031;-94
2023/05/04 15:20:04;;;;;;;39.78;20.25;;;;;;;;;;2115425;28;20032;-94
2023/05/04 15:21:04;;;;;;;34.88;20.27;;;;;;;;;;2106995;28;20056;-95
2023/05/04 15:22:05;;;;;;;34.30;19.88;;;;;;;;;;2109267;28;20040;-94
2023/05/04 15:23:09;;;;;;;28.50;17.70;;;;;;;;;;2104951;28;20066;-93
2023/05/04 15:24:09;;;;;;;32.25;18.73;;;;;;;;;;2105594;28;20017;-93
2023/05/04 15:25:10;;;;;;;35.53;18.67;;;;;;;;;;2105547;28;20484;-93
2023/05/04 15:26:10;;;;;;;30.10;19.05;;;;;;;;;;2107571;28;20043;-93
2023/05/04 15:27:11;;;;;;;32.88;18.95;;;;;;;;;;2118893;28;20023;-94
2023/05/04 15:36:33;;;;;;;31.65;19.63;;;;;;;;;;2280519;23;20504;-91
2023/05/04 15:37:34;;;;;;;32.50;19.63;;;;;;;;;;2068653;28;20042;-93
2023/05/04 15:38:35;;;;;;;30.65;19.55;;;;;;;;;;2063829;28;20508;-90
2023/05/04 15:39:36;;;;;;;35.53;20.05;;;;;;;;;;2073252;28;20486;-93
2023/05/04 15:40:36;;;;;;;35.00;19.58;;;;;;;;;;2074572;28;20026;-93
2023/05/04 15:41:43;;;;;;;37.25;19.63;;;;;;;;;;2064167;28;20030;-93
2023/05/04 15:42:43;;;;;;;32.80;18.70;;;;;;;;;;2063156;28;20023;-93
2023/05/04 15:43:44;;;;;;;36.78;18.83;;;;;;;;;;2072423;28;20018;-92
2023/05/04 15:44:54;;;;;;;33.17;20.02;;;;;;;;;;2062512;28;20027;-93
2023/05/04 15:45:54;;;;;;;31.50;18.20;;;;;;;;;;2056543;28;20026;-92
2023/05/04 15:46:55;;;;;;;29.38;17.50;;;;;;;;;;2064414;28;20067;-91
2023/05/04 15:47:58;;;;;;;30.25;19.02;;;;;;;;;;2063703;28;20026;-92
2023/05/04 15:48:59;;;;;;;36.90;18.38;;;;;;;;;;2062909;28;20414;-92
2023/05/04 15:49:59;;;;;;;34.90;19.42;;;;;;;;;;2072413;28;20044;-92
2023/05/04 15:51:01;;;;;;;31.15;17.92;;;;;;;;;;2069173;28;20022;-93
2023/05/04 15:52:02;;;;;;;29.60;18.67;;;;;;;;;;2068081;28;20034;-92
2023/05/04 15:53:02;;;;;;;30.48;18.65;;;;;;;;;;2069523;28;20018;-91
2023/05/04 15:54:03;;;;;;;33.30;19.23;;;;;;;;;;2066697;28;20039;-92
2023/05/04 15:55:04;;;;;;;30.42;18.05;;;;;;;;;;2063840;28;20037;-94
2023/05/04 15:56:06;;;;;;;30.52;18.10;;;;;;;;;;2064070;28;20080;-93
2023/05/04 15:57:07;;;;;;;34.33;19.35;;;;;;;;;;2063774;28;20026;-94
2023/05/04 15:58:07;;;;;;;38.55;19.27;;;;;;;;;;2062974;28;20106;-93
2023/05/04 15:59:07;;;;;;;30.63;18.98;;;;;;;;;;2055912;28;20558;-93
2023/05/04 16:00:08;;;;;;;35.13;18.45;;;;;;;;;;2063124;28;20098;-92
2023/05/04 16:01:12;;;;;;;32.35;18.40;;;;;;;;;;2063239;28;20466;-95
2023/05/04 16:02:13;;;;;;;34.72;19.05;;;;;;;;;;1701758;28;10302175;-92
2023/05/04 16:03:13;;;;;;;29.35;18.05;;;;;;;;;;2054921;28;20019;-93
2023/05/04 16:04:15;;;;;;;35.33;19.02;;;;;;;;;;2051870;28;20023;-93
2023/05/04 16:05:16;;;;;;;35.40;19.65;;;;;;;;;;2058084;28;20027;-92
2023/05/04 16:06:19;;;;;;;32.35;18.50;;;;;;;;;;2058945;28;20102;-94
2023/05/04 16:07:21;;;;;;;30.10;18.98;;;;;;;;;;2062061;28;20027;-94
2023/05/04 16:08:22;;;;;;;33.45;17.95;;;;;;;;;;2050061;29;20033;-92
2023/05/04 16:09:25;;;;;;;35.25;18.52;;;;;;;;;;2050844;28;20034;-94
2023/05/04 16:10:25;;;;;;;36.38;19.40;;;;;;;;;;2066439;28;20057;-94
2023/05/04 16:11:26;;;;;;;31.40;18.10;;;;;;;;;;2058360;28;20146;-93
2023/05/04 16:12:27;;;;;;;35.50;18.98;;;;;;;;;;2059428;28;20014;-93
2023/05/04 16:13:27;;;;;;;37.00;19.10;;;;;;;;;;2057573;28;20467;-91
2023/05/04 16:14:27;;;;;;;38.85;19.60;;;;;;;;;;2058443;28;20149;-94
2023/05/04 16:15:29;;;;;;;42.03;20.75;;;;;;;;;;2050734;28;20034;-91
2023/05/04 16:16:30;;;;;;;37.88;20.30;;;;;;;;;;2049196;28;20479;-93
2023/05/04 16:17:33;;;;;;;37.55;20.75;;;;;;;;;;2058408;28;20287;-94
2023/05/04 16:18:34;;;;;;;34.92;19.92;;;;;;;;;;2059495;28;20026;-90
2023/05/04 16:19:35;;;;;;;36.35;20.95;;;;;;;;;;2051602;28;20119;-93
2023/05/04 16:20:35;;;;;;;34.50;19.55;;;;;;;;;;2057572;28;20054;-94
2023/05/04 16:21:55;;;;;;;39.80;19.90;;;;;;;;;;2067797;28;20028;-93
2023/05/04 16:22:55;;;;;;;33.45;18.83;;;;;;;;;;2063114;28;20184;-92
2023/05/04 16:23:56;;;;;;;31.17;19.40;;;;;;;;;;2060350;28;20504;-94
2023/05/04 16:24:56;;;;;;;38.10;19.40;;;;;;;;;;2066924;28;20034;-93
2023/05/04 16:25:57;;;;;;;34.92;19.63;;;;;;;;;;2066815;28;20015;-91
2023/05/04 16:26:57;;;;;;;37.22;19.52;;;;;;;;;;2067157;28;20018;-93
2023/05/04 16:27:59;;;;;;;35.08;18.67;;;;;;;;;;2058649;28;20039;-93
2023/05/04 16:29:02;;;;;;;34.28;19.48;;;;;;;;;;2056512;28;20034;-89
2023/05/04 16:30:04;;;;;;;34.78;18.20;;;;;;;;;;2055157;28;20046;-91
2023/05/04 16:31:09;;;;;;;39.60;21.50;;;;;;;;;;2064659;28;20507;-92
2023/05/04 16:32:10;;;;;;;36.10;19.08;;;;;;;;;;2072107;28;20034;-93
2023/05/04 16:33:11;;;;;;;38.95;20.27;;;;;;;;;;2062283;28;20006;-91
2023/05/04 16:34:14;;;;;;;38.40;20.13;;;;;;;;;;2064394;28;20049;-90
2023/05/04 16:35:21;;;;;;;36.97;20.23;;;;;;;;;;2064764;28;20019;-92
2023/05/04 16:36:23;;;;;;;36.60;19.02;;;;;;;;;;2065170;28;20054;-90
2023/05/04 16:37:23;;;;;;;38.00;20.10;;;;;;;;;;2064964;28;20050;-91
2023/05/04 16:38:24;;;;;;;37.58;20.98;;;;;;;;;;2065652;28;20035;-93
2023/05/04 16:39:33;;;;;;;38.17;20.42;;;;;;;;;;2057232;28;20430;-91
2023/05/04 16:40:33;;;;;;;38.75;20.83;;;;;;;;;;2050331;28;20479;-94
2023/05/04 16:41:33;;;;;;;36.22;19.75;;;;;;;;;;2050540;28;20035;-94
2023/05/04 16:42:34;;;;;;;39.08;20.33;;;;;;;;;;2048756;28;20027;-91
2023/05/04 16:43:35;;;;;;;37.78;20.48;;;;;;;;;;2065010;28;20015;-92
2023/05/04 16:44:37;;;;;;;41.42;21.35;;;;;;;;;;2058796;28;20004;-94
2023/05/04 16:45:37;;;;;;;37.55;20.25;;;;;;;;;;2066554;28;20019;-91
2023/05/04 16:46:38;;;;;;;38.05;20.45;;;;;;;;;;2065931;28;20034;-93
2023/05/04 16:47:40;;;;;;;37.90;20.50;;;;;;;;;;2064842;28;20197;-92
2023/05/04 16:48:40;;;;;;;40.30;18.67;;;;;;;;;;1716160;28;10069470;-93
2023/05/04 16:49:41;;;;;;;36.72;19.73;;;;;;;;;;2056466;28;20450;-94
2023/05/04 16:50:41;;;;;;;39.70;20.83;;;;;;;;;;2066477;28;20034;-91
2023/05/04 16:51:42;;;;;;;36.95;21.05;;;;;;;;;;2058852;28;20047;-94
2023/05/04 16:52:43;;;;;;;39.53;21.35;;;;;;;;;;2059020;28;20402;-93
2023/05/04 16:53:43;;;;;;;37.28;19.38;;;;;;;;;;2051066;28;20027;-94
2023/05/04 16:54:44;;;;;;;36.72;19.58;;;;;;;;;;2049188;28;20412;-94
2023/05/04 16:55:45;;;;;;;40.42;19.58;;;;;;;;;;2058881;28;20045;-93
2023/05/04 16:56:46;;;;;;;37.47;19.58;;;;;;;;;;2058049;28;20035;-92
2023/05/04 16:57:47;;;;;;;39.95;20.00;;;;;;;;;;2056892;28;20424;-92
2023/05/04 16:58:47;;;;;;;36.13;19.90;;;;;;;;;;2057292;28;20097;-92
2023/05/04 16:59:47;;;;;;;39.80;19.55;;;;;;;;;;2057828;28;20054;-93
2023/05/04 17:00:48;;;;;;;40.72;20.50;;;;;;;;;;2059072;28;20019;-93
2023/05/04 17:01:48;;;;;;;35.65;19.00;;;;;;;;;;2055713;28;20105;-92
2023/05/04 17:02:50;;;;;;;35.75;19.17;;;;;;;;;;2049922;28;20526;-94
2023/05/04 17:03:54;;;;;;;40.30;21.08;;;;;;;;;;2057119;28;20494;-92
2023/05/04 17:04:54;;;;;;;35.60;18.60;;;;;;;;;;2065781;28;20037;-95
2023/05/04 17:05:55;;;;;;;33.05;18.45;;;;;;;;;;2057317;28;20031;-95
2023/05/04 17:06:55;;;;;;;37.13;19.33;;;;;;;;;;2049063;29;20483;-93
2023/05/04 17:07:56;;;;;;;38.80;20.13;;;;;;;;;;2048725;28;20031;-93
2023/05/04 17:08:56;;;;;;;35.97;19.33;;;;;;;;;;2056608;28;20031;-92
2023/05/04 17:09:57;;;;;;;33.60;18.50;;;;;;;;;;2056566;28;20030;-92
2023/05/04 17:10:58;;;;;;;35.58;18.83;;;;;;;;;;2056654;28;20026;-94
2023/05/04 17:12:00;;;;;;;32.00;18.30;;;;;;;;;;2056377;28;20113;-93
2023/05/04 17:13:03;;;;;;;32.15;18.27;;;;;;;;;;2056742;28;20027;-91
2023/05/04 17:14:04;;;;;;;35.17;18.80;;;;;;;;;;2057223;28;20034;-91
2023/05/04 17:15:05;;;;;;;35.28;18.90;;;;;;;;;;2065793;28;20030;-94
2023/05/04 17:16:14;;;;;;;29.80;17.50;;;;;;;;;;2055911;28;20480;-92
2023/05/04 17:17:16;;;;;;;34.15;18.15;;;;;;;;;;2050245;28;20027;-92
2023/05/04 17:18:16;;;;;;;35.35;19.23;;;;;;;;;;2048813;28;20474;-93
2023/05/04 17:19:17;;;;;;;33.60;17.65;;;;;;;;;;2056506;28;20019;-92
2023/05/04 17:20:17;;;;;;;33.10;17.55;;;;;;;;;;2056682;28;20049;-93
2023/05/04 17:21:18;;;;;;;30.80;16.83;;;;;;;;;;2056475;28;20041;-92
2023/05/04 17:22:19;;;;;;;29.52;17.25;;;;;;;;;;2056647;28;20019;-93
2023/05/04 17:23:39;;;;;;;32.96;17.34;;;;;;;;;;1681306;28;10003139;-95
2023/05/04 17:24:40;;;;;;;;;;;;;;;;;;2057354;28;20497;-93
2023/05/04 17:25:40;;;;;;;34.33;16.95;;;;;;;;;;2048807;28;19918;-94
2023/05/04 17:26:41;;;;;;;35.15;18.35;;;;;;;;;;2049166;29;20522;-94
2023/05/04 17:27:42;;;;;;;31.27;17.17;;;;;;;;;;2057061;28;20061;-92
2023/05/04 17:28:43;;;;;;;33.03;18.25;;;;;;;;;;2057443;28;20121;-94
2023/05/04 17:29:44;;;;;;;30.38;16.17;;;;;;;;;;2056918;28;20037;-91
2023/05/04 17:30:45;;;;;;;30.85;17.77;;;;;;;;;;2057705;28;20035;-93
2023/05/04 17:31:45;;;;;;;33.58;16.98;;;;;;;;;;2057846;28;20026;-92
2023/05/04 17:32:47;;;;;;;31.85;17.50;;;;;;;;;;2057265;28;20497;-94
2023/05/04 17:33:47;;;;;;;32.10;17.02;;;;;;;;;;2057059;28;20037;-94
2023/05/04 17:34:51;;;;;;;32.83;17.77;;;;;;;;;;2057008;28;20125;-94
2023/05/04 17:35:51;;;;;;;31.23;17.55;;;;;;;;;;2053539;28;20027;-91
2023/05/04 17:36:52;;;;;;;32.55;17.23;;;;;;;;;;2063668;28;20041;-91
2023/05/04 17:37:53;;;;;;;36.25;17.65;;;;;;;;;;2057224;28;20026;-92
2023/05/04 17:38:54;;;;;;;32.85;19.00;;;;;;;;;;2056610;28;20038;-91
2023/05/04 17:39:54;;;;;;;33.80;17.63;;;;;;;;;;2056383;28;20373;-92
2023/05/04 17:40:55;;;;;;;34.30;18.92;;;;;;;;;;2049464;29;20039;-94
2023/05/04 17:41:55;;;;;;;32.10;17.08;;;;;;;;;;2049267;29;20437;-93
2023/05/04 17:42:56;;;;;;;30.50;16.48;;;;;;;;;;2057517;28;20034;-93
2023/05/04 17:43:57;;;;;;;28.02;15.52;;;;;;;;;;2057347;28;20501;-94
2023/05/04 17:44:57;;;;;;;33.00;17.80;;;;;;;;;;2057020;28;20530;-94
2023/05/04 17:45:58;;;;;;;33.10;17.08;;;;;;;;;;2056837;28;20030;-92
2023/05/04 17:46:59;;;;;;;31.33;16.98;;;;;;;;;;2047916;28;20058;-90
2023/05/04 17:47:59;;;;;;;31.50;16.55;;;;;;;;;;2048640;29;20026;-93
2023/05/04 17:49:00;;;;;;;33.47;17.52;;;;;;;;;;2048619;29;20145;-93
2023/05/04 17:50:00;;;;;;;30.15;16.48;;;;;;;;;;2057322;28;20205;-92
2023/05/04 17:51:01;;;;;;;32.67;17.45;;;;;;;;;;2059096;28;20039;-93
2023/05/04 17:52:01;;;;;;;32.60;17.85;;;;;;;;;;2056197;28;20034;-93
2023/05/04 17:53:02;;;;;;;30.38;16.85;;;;;;;;;;2049004;29;20082;-95
2023/05/04 17:54:03;;;;;;;32.72;17.45;;;;;;;;;;2057057;28;20045;-92
2023/05/04 17:55:04;;;;;;;32.28;17.67;;;;;;;;;;2057874;28;20109;-94
2023/05/04 17:56:04;;;;;;;33.42;17.80;;;;;;;;;;2057536;28;20496;-94
2023/05/04 17:57:05;;;;;;;35.78;18.05;;;;;;;;;;2056603;28;20050;-93
2023/05/04 17:58:05;;;;;;;30.98;17.08;;;;;;;;;;2049224;28;20150;-95
2023/05/04 17:59:08;;;;;;;;;;;;;;;;;;1711898;28;10062431;-92
2023/05/04 18:00:09;;;;;;;35.58;16.80;;;;;;;;;;2064280;28;20432;-94
2023/05/04 18:01:10;;;;;;;37.20;17.88;;;;;;;;;;2057039;28;20031;-95
2023/05/04 18:02:10;;;;;;;33.38;17.75;;;;;;;;;;2048894;29;20491;-93
2023/05/04 18:03:11;;;;;;;33.25;17.70;;;;;;;;;;2056664;28;20045;-93
2023/05/04 18:04:11;;;;;;;34.33;18.90;;;;;;;;;;2057166;28;20496;-94
2023/05/04 18:05:12;;;;;;;34.58;17.45;;;;;;;;;;2056927;28;20047;-92
2023/05/04 18:06:12;;;;;;;34.78;18.23;;;;;;;;;;2056958;28;20105;-92
2023/05/04 18:07:14;;;;;;;34.38;18.77;;;;;;;;;;2059753;28;20458;-94
2023/05/04 18:08:15;;;;;;;32.78;18.30;;;;;;;;;;2049701;28;20035;-94
2023/05/04 18:09:16;;;;;;;35.58;18.27;;;;;;;;;;2051718;28;20046;-94
2023/05/04 18:10:16;;;;;;;34.72;18.17;;;;;;;;;;2050314;28;20423;-94
2023/05/04 18:11:17;;;;;;;39.40;19.17;;;;;;;;;;2057916;28;20030;-94
2023/05/04 18:12:18;;;;;;;32.50;17.85;;;;;;;;;;1702025;28;10360023;-91
2023/05/04 18:13:18;;;;;;;32.92;17.10;;;;;;;;;;2057214;28;20051;-93
2023/05/04 18:14:19;;;;;;;35.90;18.40;;;;;;;;;;2059709;28;20030;-93
2023/05/04 18:15:21;;;;;;;34.53;18.08;;;;;;;;;;2050861;29;20117;-94
2023/05/04 18:16:23;;;;;;;35.58;18.85;;;;;;;;;;2056952;28;20027;-93
2023/05/04 18:17:25;;;;;;;36.53;17.67;;;;;;;;;;2058519;28;20050;-94
2023/05/04 18:18:25;;;;;;;34.28;18.38;;;;;;;;;;2052673;28;20038;-94
2023/05/04 18:19:27;;;;;;;35.35;18.73;;;;;;;;;;2056226;28;20046;-89
2023/05/04 18:20:30;;;;;;;34.30;19.15;;;;;;;;;;2066446;28;20082;-88
2023/05/04 18:21:37;;;;;;;35.22;18.20;;;;;;;;;;2065757;28;20092;-88
2023/05/04 18:22:41;;;;;;;34.65;18.83;;;;;;;;;;2058270;28;20136;-88
2023/05/04 18:23:42;;;;;;;31.25;17.90;;;;;;;;;;2049073;28;20054;-89
2023/05/04 18:24:46;;;;;;;35.88;18.40;;;;;;;;;;2057084;28;20027;-88
2023/05/04 18:25:47;;;;;;;34.80;18.15;;;;;;;;;;2065476;28;20081;-89
2023/05/04 18:26:47;;;;;;;34.20;17.98;;;;;;;;;;2058521;28;20034;-88
2023/05/04 18:27:53;;;;;;;34.50;19.25;;;;;;;;;;2056544;28;20089;-88
2023/05/04 18:28:54;;;;;;;35.47;18.77;;;;;;;;;;2068291;28;20070;-88
2023/05/04 18:29:54;;;;;;;33.85;18.08;;;;;;;;;;2056957;28;20030;-88
2023/05/04 18:30:54;;;;;;;34.00;18.08;;;;;;;;;;2055874;28;20058;-88
2023/05/04 18:31:55;;;;;;;31.77;17.38;;;;;;;;;;2065857;28;20431;-88
2023/05/04 18:32:55;;;;;;;31.83;17.30;;;;;;;;;;2066189;28;20053;-90
2023/05/04 18:33:58;;;;;;;33.53;17.67;;;;;;;;;;2065785;28;20045;-90
2023/05/04 18:35:00;;;;;;;31.67;18.08;;;;;;;;;;2066372;28;20030;-88
2023/05/04 18:36:00;;;;;;;41.60;18.58;;;;;;;;;;2066053;28;20113;-88
2023/05/04 18:37:01;;;;;;;37.70;18.40;;;;;;;;;;2056379;28;20227;-88
2023/05/04 18:38:01;;;;;;;37.17;19.15;;;;;;;;;;2056571;28;20454;-89
2023/05/04 18:39:01;;;;;;;35.72;18.05;;;;;;;;;;2056131;28;20483;-89
2023/05/04 18:40:03;;;;;;;37.67;18.20;;;;;;;;;;2055514;28;20114;-88
2023/05/04 18:41:04;;;;;;;37.78;18.60;;;;;;;;;;2057052;28;20034;-88
2023/05/04 18:42:05;;;;;;;35.28;18.38;;;;;;;;;;2067658;28;20022;-88
2023/05/04 18:43:05;;;;;;;35.75;19.13;;;;;;;;;;2065233;28;20030;-89
2023/05/04 18:44:07;;;;;;;34.05;17.23;;;;;;;;;;2055715;28;20034;-90
2023/05/04 18:45:10;;;;;;;36.05;19.13;;;;;;;;;;2055549;28;20085;-89
2023/05/04 18:46:10;;;;;;;34.83;17.58;;;;;;;;;;2055390;28;20477;-88
2023/05/04 18:47:10;;;;;;;36.65;18.38;;;;;;;;;;2056058;28;20085;-89
2023/05/04 18:48:11;;;;;;;37.30;17.65;;;;;;;;;;2056042;28;20027;-88
2023/05/04 18:49:11;;;;;;;34.63;18.65;;;;;;;;;;1972523;28;20946;-88
2023/05/04 18:50:12;;;;;;;36.83;18.65;;;;;;;;;;2034663;29;20102;-89
2023/05/04 18:51:12;;;;;;;43.20;19.10;;;;;;;;;;2046770;29;20050;-88
2023/05/04 18:52:12;;;;;;;35.15;18.13;;;;;;;;;;2050850;29;20057;-88
2023/05/04 18:53:13;;;;;;;35.78;18.40;;;;;;;;;;2041589;29;20496;-88
2023/05/04 18:54:14;;;;;;;39.20;18.52;;;;;;;;;;2042397;29;20028;-86
2023/05/04 18:55:17;;;;;;;33.80;18.33;;;;;;;;;;2055729;28;20016;-88
2023/05/04 18:56:17;;;;;;;35.38;19.27;;;;;;;;;;2049826;28;20048;-91
2023/05/04 18:57:17;;;;;;;34.83;17.85;;;;;;;;;;2049970;28;20043;-88
2023/05/04 18:58:18;;;;;;;36.38;18.67;;;;;;;;;;2056946;28;20038;-88
2023/05/04 18:59:18;;;;;;;35.72;17.48;;;;;;;;;;2047037;29;20020;-89
2023/05/04 19:00:19;;;;;;;33.50;17.05;;;;;;;;;;2036444;29;20024;-89
2023/05/04 19:01:20;;;;;;;30.67;16.90;;;;;;;;;;2041622;29;20032;-88
2023/05/04 19:02:21;;;;;;;35.08;17.63;;;;;;;;;;2040729;29;20045;-88
2023/05/04 19:03:21;;;;;;;33.13;16.67;;;;;;;;;;2041518;29;20028;-88
2023/05/04 19:04:21;;;;;;;34.35;17.13;;;;;;;;;;2040754;29;20432;-88
2023/05/04 19:05:22;;;;;;;34.05;16.77;;;;;;;;;;2033051;29;20040;-89
2023/05/04 19:06:23;;;;;;;31.70;16.38;;;;;;;;;;2032779;29;20059;-89
2023/05/04 19:07:23;;;;;;;32.92;17.73;;;;;;;;;;2041656;29;20637;-90
2023/05/04 19:08:23;;;;;;;33.38;17.73;;;;;;;;;;2049635;29;20407;-89
2023/05/04 19:09:26;;;;;;;28.70;15.35;;;;;;;;;;2048559;29;20186;-90
2023/05/04 19:10:27;;;;;;;28.17;15.13;;;;;;;;;;2040334;29;20139;-89
2023/05/04 19:11:28;;;;;;;30.02;15.98;;;;;;;;;;1689486;29;10320209;-89
2023/05/04 19:12:30;;;;;;;30.55;16.17;;;;;;;;;;2049783;29;20102;-89
2023/05/04 19:13:30;;;;;;;31.75;16.70;;;;;;;;;;2050836;29;20038;-88
2023/05/04 19:14:31;;;;;;;31.52;15.85;;;;;;;;;;2051507;29;20030;-88
2023/05/04 19:15:34;;;;;;;30.08;15.93;;;;;;;;;;2048853;29;20031;-88
2023/05/04 19:16:35;;;;;;;32.47;17.38;;;;;;;;;;2050283;29;20095;-89
2023/05/04 19:17:35;;;;;;;33.67;16.23;;;;;;;;;;2057886;28;20034;-88
2023/05/04 19:18:36;;;;;;;29.55;16.35;;;;;;;;;;2052196;29;20440;-88
2023/05/04 19:19:36;;;;;;;26.90;16.08;;;;;;;;;;2050948;29;20126;-88
2023/05/04 19:20:38;;;;;;;31.73;16.27;;;;;;;;;;2050247;29;20471;-88
2023/05/04 19:21:38;;;;;;;27.05;15.88;;;;;;;;;;2049891;29;20046;-89
2023/05/04 19:22:39;;;;;;;28.58;16.00;;;;;;;;;;2039403;29;20040;-88
2023/05/04 19:23:39;;;;;;;26.52;14.55;;;;;;;;;;2039842;29;20491;-88
2023/05/04 19:24:40;;;;;;;29.92;16.45;;;;;;;;;;2048143;29;20035;-89
2023/05/04 19:25:40;;;;;;;29.13;14.70;;;;;;;;;;2047723;29;20034;-88
2023/05/04 19:26:41;;;;;;;29.67;16.58;;;;;;;;;;2039085;29;20035;-89
2023/05/04 19:27:41;;;;;;;29.65;16.63;;;;;;;;;;2039445;29;20115;-89
2023/05/04 19:28:41;;;;;;;30.88;16.65;;;;;;;;;;2038944;29;20155;-89
2023/05/04 19:29:42;;;;;;;29.98;16.63;;;;;;;;;;2039849;29;20107;-89
2023/05/04 19:30:42;;;;;;;30.40;16.92;;;;;;;;;;2039039;29;20143;-88
2023/05/04 19:31:43;;;;;;;31.10;17.73;;;;;;;;;;2031450;29;20386;-88
2023/05/04 19:32:43;;;;;;;28.00;14.75;;;;;;;;;;2031170;29;20058;-88
2023/05/04 19:33:44;;;;;;;27.42;16.58;;;;;;;;;;2038765;29;20039;-88
2023/05/04 19:34:45;;;;;;;27.00;16.17;;;;;;;;;;2039070;29;20044;-88
2023/05/04 19:35:45;;;;;;;29.08;16.80;;;;;;;;;;2039191;29;20056;-88
2023/05/04 19:36:45;;;;;;;28.05;16.38;;;;;;;;;;2039237;29;20060;-87
2023/05/04 19:37:46;;;;;;;30.77;18.05;;;;;;;;;;2047643;29;20031;-89
2023/05/04 19:38:47;;;;;;;35.35;18.75;;;;;;;;;;2047665;28;20031;-89
2023/05/04 19:39:47;;;;;;;31.40;17.75;;;;;;;;;;2040136;29;20039;-89
2023/05/04 19:40:47;;;;;;;28.45;18.13;;;;;;;;;;2040570;29;20036;-89
2023/05/04 19:41:48;;;;;;;31.33;15.95;;;;;;;;;;2040642;29;20092;-89
2023/05/04 19:42:48;;;;;;;30.77;17.55;;;;;;;;;;2040280;29;20046;-89
2023/05/04 19:43:49;;;;;;;29.02;15.38;;;;;;;;;;2040677;29;20036;-89
2023/05/04 19:44:49;;;;;;;26.45;15.90;;;;;;;;;;2040146;29;20451;-88
2023/05/04 19:45:50;;;;;;;29.88;15.98;;;;;;;;;;2040534;29;20063;-89
2023/05/04 19:46:51;;;;;;;28.05;14.35;;;;;;;;;;2049038;29;20431;-90
2023/05/04 19:47:51;;;;;;;26.30;15.07;;;;;;;;;;2040058;29;20584;-89
2023/05/04 19:48:52;;;;;;;26.45;15.23;;;;;;;;;;2040590;29;20051;-90
2023/05/04 19:49:53;;;;;;;28.13;15.02;;;;;;;;;;2040263;29;20028;-91
2023/05/04 19:50:53;;;;;;;25.92;15.07;;;;;;;;;;2032983;29;20084;-90
2023/05/04 19:51:54;;;;;;;25.30;14.52;;;;;;;;;;2032403;29;20527;-90
2023/05/04 19:52:54;;;;;;;27.27;14.35;;;;;;;;;;2040352;29;20056;-89
2023/05/04 19:53:55;;;;;;;23.58;13.45;;;;;;;;;;2048818;29;20035;-89
2023/05/04 19:54:55;;;;;;;26.00;13.52;;;;;;;;;;2040499;29;20047;-90
2023/05/04 19:55:57;;;;;;;24.13;13.43;;;;;;;;;;2040353;29;20047;-89
2023/05/04 19:56:57;;;;;;;24.52;13.77;;;;;;;;;;2040204;29;20494;-89
2023/05/04 19:57:58;;;;;;;24.63;13.63;;;;;;;;;;2040031;29;20111;-90
2023/05/04 19:58:59;;;;;;;22.85;13.35;;;;;;;;;;2040403;29;20056;-90
2023/05/04 20:00:03;;;;;;;25.85;14.07;;;;;;;;;;2048166;29;20034;-90
2023/05/04 20:01:03;;;;;;;24.08;13.18;;;;;;;;;;2041596;29;20571;-94
2023/05/04 20:02:04;;;;;;;24.65;13.50;;;;;;;;;;2041658;29;20110;-94
2023/05/04 20:03:04;;;;;;;24.80;13.02;;;;;;;;;;2049796;29;20046;-94
2023/05/04 20:04:07;;;;;;;25.23;14.00;;;;;;;;;;2041590;29;20087;-94
2023/05/04 20:05:07;;;;;;;27.40;14.05;;;;;;;;;;2041566;29;20122;-94
2023/05/04 20:06:08;;;;;;;28.40;14.05;;;;;;;;;;2041438;29;20075;-93
2023/05/04 20:07:08;;;;;;;25.42;14.43;;;;;;;;;;2041627;29;20570;-94
2023/05/04 20:08:09;;;;;;;23.85;13.57;;;;;;;;;;2041754;29;20199;-93
2023/05/04 20:09:09;;;;;;;24.83;14.18;;;;;;;;;;2034007;29;20123;-91
2023/05/04 20:10:10;;;;;;;24.92;13.02;;;;;;;;;;2036015;29;20439;-93
2023/05/04 20:11:12;;;;;;;25.33;14.70;;;;;;;;;;2038538;29;20079;-93
2023/05/04 20:12:12;;;;;;;24.55;13.23;;;;;;;;;;2048367;29;20179;-92
2023/05/04 20:13:13;;;;;;;27.30;13.80;;;;;;;;;;2050386;29;20056;-93
2023/05/04 20:14:14;;;;;;;22.97;13.73;;;;;;;;;;1691015;29;10273488;-92
2023/05/04 20:15:14;;;;;;;21.40;13.43;;;;;;;;;;2036786;29;20032;-92
2023/05/04 20:16:15;;;;;;;21.67;12.65;;;;;;;;;;1687521;29;10428907;-94
2023/05/04 20:17:15;;;;;;;25.13;13.38;;;;;;;;;;2041705;29;20447;-93
2023/05/04 20:18:16;;;;;;;20.45;12.73;;;;;;;;;;2043003;29;20373;-91
2023/05/04 20:19:16;;;;;;;19.35;11.13;;;;;;;;;;2034279;29;20123;-93
2023/05/04 20:20:19;;;;;;;20.15;11.68;;;;;;;;;;2041956;29;20027;-93
2023/05/04 20:21:20;;;;;;;20.90;11.25;;;;;;;;;;2041520;29;20019;-93
2023/05/04 20:22:21;;;;;;;21.60;11.73;;;;;;;;;;2035219;29;20038;-92
2023/05/04 20:23:21;;;;;;;23.98;12.25;;;;;;;;;;2033813;29;20036;-93
2023/05/04 20:24:22;;;;;;;18.88;11.02;;;;;;;;;;2033322;29;20046;-93
2023/05/04 20:25:22;;;;;;;22.10;12.90;;;;;;;;;;2042060;29;20099;-92
2023/05/04 20:26:23;;;;;;;19.50;11.00;;;;;;;;;;2041809;29;20398;-94
2023/05/04 20:27:23;;;;;;;25.20;12.38;;;;;;;;;;2041871;29;20027;-92
2023/05/04 20:28:24;;;;;;;23.58;12.43;;;;;;;;;;2041380;29;20503;-94
2023/05/04 20:29:24;;;;;;;20.05;12.15;;;;;;;;;;2034000;29;20492;-92
2023/05/04 20:30:27;;;;;;;21.88;12.20;;;;;;;;;;2033808;29;20031;-93
2023/05/04 20:31:27;;;;;;;22.38;13.00;;;;;;;;;;2042765;29;20023;-94
2023/05/04 20:32:29;;;;;;;23.48;12.82;;;;;;;;;;2043108;29;20038;-93
2023/05/04 20:33:30;;;;;;;21.88;13.60;;;;;;;;;;2034223;29;20039;-92
2023/05/04 20:34:30;;;;;;;23.38;13.40;;;;;;;;;;2034715;29;20164;-93
2023/05/04 20:35:31;;;;;;;30.75;12.57;;;;;;;;;;2041346;29;20086;-93
2023/05/04 20:36:32;;;;;;;26.30;14.30;;;;;;;;;;2041976;29;20031;-92
2023/05/04 20:37:33;;;;;;;21.38;12.90;;;;;;;;;;2041615;29;20048;-92
2023/05/04 20:38:33;;;;;;;23.10;12.27;;;;;;;;;;2034644;29;20032;-95
2023/05/04 20:39:34;;;;;;;23.45;13.07;;;;;;;;;;2033926;29;20047;-94
2023/05/04 20:40:34;;;;;;;23.25;12.90;;;;;;;;;;2033975;29;20127;-93
2023/05/04 20:41:35;;;;;;;23.67;12.90;;;;;;;;;;2036118;29;20054;-93
2023/05/04 20:42:35;;;;;;;23.65;14.10;;;;;;;;;;2034294;29;20028;-93
2023/05/04 20:43:37;;;;;;;24.52;13.25;;;;;;;;;;2034808;29;20070;-93
2023/05/04 20:44:38;;;;;;;22.85;12.70;;;;;;;;;;2042133;29;20109;-93
2023/05/04 20:45:41;;;;;;;23.67;13.88;;;;;;;;;;2034304;29;20036;-94
2023/05/04 20:46:42;;;;;;;27.27;14.38;;;;;;;;;;2034052;29;20051;-94
2023/05/04 20:47:42;;;;;;;22.10;12.77;;;;;;;;;;2034790;29;20032;-92
2023/05/04 20:48:43;;;;;;;22.88;12.85;;;;;;;;;;2027545;29;20524;-92
2023/05/04 20:49:43;;;;;;;24.10;12.95;;;;;;;;;;2034436;29;20031;-93
2023/05/04 20:51:25;;;;;;;21.77;12.18;;;;;;;;;;2036094;29;20047;-94
2023/05/04 20:52:26;;;;;;;21.95;12.95;;;;;;;;;;2050065;28;20028;-87
2023/05/04 20:53:29;;;;;;;19.90;11.80;;;;;;;;;;2033744;29;20107;-90
2023/05/04 20:54:30;;;;;;;22.25;12.82;;;;;;;;;;2032894;29;20092;-89
2023/05/04 20:55:42;;;;;;;26.65;13.05;;;;;;;;;;2031893;29;20432;-89
2023/05/04 20:56:55;;;;;;;;;;;;;;;;;;;;;
2023/05/04 20:57:56;;;;;;;23.00;12.65;;;;;;;;;;2045849;28;20023;-88
2023/05/04 20:58:56;;;;;;;23.27;13.25;;;;;;;;;;2039789;29;20032;-88